Latest Weather Observations for New May Downs

IDQ60801

Issued at 6:35 pm EST Friday 24 October 2014 (issued every 30 minutes, with the page automatically refreshed every 10 minutes)

About weather observations | Map of weather stations | Latest weather observations for QLD | Other Formats
Station Details ID: 037059 Name: NEW MAY DOWNS Lat: -20.59 Lon: 139.34 Height: 392.0 m
Data from the previous 72 hours. | See also: Recent months for locations in Queensland
Date/Time
EST
Temp
°C
App
Temp
°C
Dew
Point
Rel
Hum
%
Delta-T
°C
Wind Press
QNH
hPa
Press
MSL
hPa
Rain
since 9 am
mm
Dir
 
Spd
km/h
Gust
km/h
Spd
kts
Gust
kts
24/06:30pm 32.9 27.1 -0.2 12 16.4 ENE 20 30 11 16 - - 0.0
24/06:00pm 33.8 29.0 0.5 12 16.7 ENE 15 26 8 14 - - 0.0
24/05:30pm 34.2 27.2 -0.4 11 17.2 E 26 43 14 23 - - 0.0
24/05:00pm 34.8 29.2 0.0 11 17.5 ENE 19 26 10 14 - - 0.0
24/04:30pm 35.5 29.8 -0.8 10 18.1 ENE 19 28 10 15 - - 0.0
24/04:00pm 35.2 28.7 0.3 11 17.6 E 24 39 13 21 - - 0.0
24/03:30pm 35.3 29.6 0.4 11 17.7 ESE 20 35 11 19 - - 0.0
24/03:00pm 35.4 29.1 1.7 12 17.4 ESE 24 35 13 19 - - 0.0
24/02:30pm 35.4 29.9 1.7 12 17.4 E 20 33 11 18 - - 0.0
24/02:00pm 34.4 28.0 3.1 14 16.5 E 26 46 14 25 - - 0.0
24/01:30pm 34.4 28.2 2.0 13 16.8 E 24 41 13 22 - - 0.0
24/01:19pm 34.4 27.6 3.1 14 16.5 E 28 48 15 26 - - 0.0
24/01:00pm 35.0 30.0 3.5 14 16.7 E 19 35 10 19 - - 0.0
24/12:30pm 34.7 29.6 4.3 15 16.3 NE 20 30 11 16 - - 0.0
24/12:00pm 34.2 29.3 3.9 15 16.1 E 19 30 10 16 - - 0.0
24/11:30am 33.1 28.2 3.9 16 15.5 NE 19 26 10 14 - - 0.0
24/11:00am 33.4 28.3 3.3 15 15.8 NE 19 30 10 16 - - 0.0
24/10:30am 32.5 27.4 4.3 17 15.0 NE 20 33 11 18 - - 0.0
24/10:00am 31.9 26.4 3.8 17 14.7 NE 22 33 12 18 - - 0.0
24/09:30am 30.3 25.0 4.9 20 13.5 NNE 22 30 12 16 - - 0.0
24/09:00am 29.9 24.1 4.5 20 13.3 NE 24 37 13 20 - - 0.0
24/08:30am 29.1 23.8 3.1 19 13.3 ENE 20 28 11 15 - - 0.0
24/08:00am 28.1 22.7 2.3 19 12.9 NE 20 30 11 16 - - 0.0
24/07:30am 27.4 22.5 1.8 19 12.6 NE 17 24 9 13 - - 0.0
24/07:00am 24.7 21.5 2.8 24 10.8 E 9 11 5 6 - - 0.0
24/06:30am 23.3 20.6 3.8 28 9.7 E 7 9 4 5 - - 0.0
24/06:00am 21.9 19.2 3.6 30 9.0 ESE 7 9 4 5 - - 0.0
24/05:30am 22.9 20.2 3.9 29 9.4 ENE 7 9 4 5 - - 0.0
24/05:00am 23.2 20.6 4.2 29 9.5 E 7 7 4 4 - - 0.0
24/04:30am 23.3 20.9 4.3 29 9.5 E 6 7 3 4 - - 0.0
24/04:00am 24.0 21.5 3.9 27 10.1 E 6 6 3 3 - - 0.0
24/03:30am 24.5 22.1 4.3 27 10.2 ENE 6 7 3 4 - - 0.0
24/03:00am 24.8 22.3 4.0 26 10.5 E 6 9 3 5 - - 0.0
24/02:30am 24.8 21.7 3.5 25 10.6 E 9 11 5 6 - - 0.0
24/02:00am 25.3 22.5 3.3 24 11.0 E 7 9 4 5 - - 0.0
24/01:30am 25.5 22.3 2.9 23 11.2 ENE 9 11 5 6 - - 0.0
24/01:00am 25.8 22.2 3.1 23 11.3 E 11 15 6 8 - - 0.0
24/12:30am 25.5 22.3 2.9 23 11.2 E 9 13 5 7 - - 0.0
24/12:00am 26.0 23.1 2.7 22 11.6 E 7 9 4 5 - - 0.0
 
Date/Time
EST
Temp
°C
App
Temp
°C
Dew
Point
Rel
Hum
%
Delta-T
°C
Wind Press
QNH
hPa
Press
MSL
hPa
Rain
since 9 am
mm
Dir
 
Spd
km/h
Gust
km/h
Spd
kts
Gust
kts
23/11:30pm 25.8 23.6 3.1 23 11.3 E 4 7 2 4 - - 0.0
23/11:00pm 26.5 23.6 2.4 21 11.9 ENE 7 9 4 5 - - 0.0
23/10:30pm 26.9 24.2 2.7 21 12.1 E 6 7 3 4 - - 0.0
23/10:00pm 27.3 24.6 2.4 20 12.4 E 6 7 3 4 - - 0.0
23/09:30pm 27.8 24.8 2.1 19 12.8 E 7 9 4 5 - - 0.0
23/09:00pm 28.3 25.4 2.5 19 13.0 ENE 7 9 4 5 - - 0.0
23/08:30pm 29.2 26.3 2.5 18 13.5 ENE 7 9 4 5 - - 0.0
23/08:00pm 29.8 26.4 2.1 17 13.9 ENE 9 11 5 6 - - 0.0
23/07:30pm 31.0 27.1 1.4 15 14.8 ENE 11 20 6 11 - - 0.0
23/07:00pm 31.7 27.2 1.9 15 15.1 ENE 15 20 8 11 - - 0.0
23/06:30pm 32.2 27.2 1.3 14 15.6 E 17 26 9 14 - - 0.0
23/06:00pm 33.0 28.5 -0.2 12 16.4 ENE 13 19 7 10 - - 0.0
23/05:30pm 33.8 28.3 0.5 12 16.7 ENE 19 32 10 17 - - 0.0
23/05:00pm 33.9 26.9 -0.7 11 17.1 E 26 33 14 18 - - 0.0
23/04:30pm 34.2 28.0 -0.4 11 17.2 ENE 22 35 12 19 - - 0.0
23/04:00pm 34.8 30.3 0.0 11 17.5 E 13 26 7 14 - - 0.0
23/03:30pm 33.5 27.9 0.2 12 16.6 E 19 33 10 18 - - 0.0
23/03:00pm 34.9 29.1 0.1 11 17.5 E 20 33 11 18 - - 0.0
23/02:30pm 34.3 28.6 -0.4 11 17.2 E 19 26 10 14 - - 0.0
23/02:00pm 34.2 28.7 0.8 12 16.9 E 19 28 10 15 - - 0.0
23/01:30pm 34.0 28.5 0.6 12 16.8 E 19 28 10 15 - - 0.0
23/01:00pm 32.7 29.7 1.7 14 15.8 NE 7 9 4 5 - - 0.0
23/12:30pm 33.5 28.8 3.3 15 15.9 NE 17 28 9 15 - - 0.0
23/12:00pm 33.3 29.0 3.2 15 15.8 ENE 15 26 8 14 - - 0.0
23/11:30am 32.4 28.2 5.8 19 14.5 NE 17 24 9 13 - - 0.0
23/11:00am 31.3 27.1 5.7 20 13.8 NE 17 28 9 15 - - 0.0
23/10:30am 30.9 26.4 6.0 21 13.5 NNE 19 32 10 17 - - 0.0
23/10:00am 29.6 24.0 5.6 22 12.8 NNE 24 32 13 17 - - 0.0
23/09:30am 28.7 23.8 6.7 25 11.9 NE 22 32 12 17 - - 0.0
23/09:00am 28.3 24.1 8.1 28 11.2 NE 20 32 11 17 - - 0.0
23/08:30am 27.4 22.8 8.3 30 10.5 ENE 22 33 12 18 - - 0.0
23/08:00am 26.9 22.0 6.9 28 10.8 NE 22 30 12 16 - - 0.0
23/07:30am 26.1 21.4 5.1 26 10.9 ENE 19 28 10 15 - - 0.0
23/07:00am 24.5 21.4 1.4 22 11.1 E 7 9 4 5 - - 0.0
23/06:30am 23.1 19.5 0.9 23 10.4 E 9 11 5 6 - - 0.0
23/06:00am 22.7 19.0 -0.1 22 10.5 ENE 9 11 5 6 - - 0.0
23/05:30am 23.9 19.9 0.3 21 11.0 E 11 19 6 10 - - 0.0
23/05:00am 24.1 19.6 -0.2 20 11.3 E 13 19 7 10 - - 0.0
23/04:30am 23.9 19.8 -0.4 20 11.2 E 11 15 6 8 - - 0.0
23/04:00am 23.9 19.4 -0.4 20 11.2 E 13 15 7 8 - - 0.0
23/03:30am 23.8 19.7 -0.5 20 11.2 E 11 17 6 9 - - 0.0
23/03:00am 23.0 18.8 -1.1 20 10.9 E 11 13 6 7 - - 0.0
23/02:30am 23.5 18.9 -0.7 20 11.1 ESE 13 17 7 9 - - 0.0
23/02:00am 22.9 19.2 0.1 22 10.5 E 9 11 5 6 - - 0.0
23/01:30am 23.6 20.4 0.7 22 10.8 SE 7 7 4 4 - - 0.0
23/01:00am 24.0 20.7 0.4 21 11.1 ESE 7 7 4 4 - - 0.0
23/12:30am 23.7 20.6 0.1 21 11.0 ESE 6 7 3 4 - - 0.0
23/12:00am 24.2 21.0 0.5 21 11.2 ESE 7 9 4 5 - - 0.0
 
Date/Time
EST
Temp
°C
App
Temp
°C
Dew
Point
Rel
Hum
%
Delta-T
°C
Wind Press
QNH
hPa
Press
MSL
hPa
Rain
since 9 am
mm
Dir
 
Spd
km/h
Gust
km/h
Spd
kts
Gust
kts
22/11:30pm 23.5 20.3 -0.7 20 11.1 SE 6 9 3 5 - - 0.0
22/11:00pm 24.3 21.6 0.6 21 11.2 E 4 6 2 3 - - 0.0
22/10:30pm 25.4 22.7 0.1 19 11.9 ESE 4 6 2 3 - - 0.0
22/10:00pm 26.5 23.1 -0.5 17 12.7 E 7 9 4 5 - - 0.0
22/09:30pm 26.9 23.6 -0.2 17 12.9 E 7 9 4 5 - - 0.0
22/09:00pm 27.4 23.9 -1.5 15 13.4 ESE 7 11 4 6 - - 0.0
22/08:30pm 28.0 24.0 -2.0 14 13.9 E 9 9 5 5 - - 0.0
22/08:00pm 28.7 24.7 -2.4 13 14.4 ESE 9 11 5 6 - - 0.0
22/07:30pm 29.5 25.4 -2.9 12 14.9 E 9 11 5 6 - - 0.0
22/07:00pm 30.9 26.0 -0.7 13 15.3 ESE 15 20 8 11 - - 0.0
22/06:30pm 31.5 27.7 1.8 15 15.0 E 11 19 6 10 - - 0.0
22/06:00pm 32.4 28.2 1.5 14 15.7 ESE 13 22 7 12 - - 0.0
22/05:30pm 32.9 27.2 2.9 15 15.6 ESE 22 32 12 17 - - 0.0
22/05:00pm 33.2 28.8 4.9 17 15.2 ENE 17 30 9 16 - - 0.0
22/04:30pm 33.6 30.4 5.2 17 15.4 ESE 11 20 6 11 - - 0.0
22/04:00pm 33.4 28.5 5.0 17 15.3 SE 20 28 11 15 - - 0.0
22/03:30pm 33.1 29.3 5.6 18 15.0 ENE 15 26 8 14 - - 0.0
22/03:00pm 33.9 30.2 6.3 18 15.2 E 15 26 8 14 - - 0.0
22/02:30pm 33.5 29.0 5.9 18 15.1 E 19 32 10 17 - - 0.0
22/02:00pm 33.6 29.8 6.0 18 15.1 E 15 30 8 16 - - 0.0
22/01:30pm 31.7 29.2 6.7 21 13.7 NNE 9 19 5 10 - - 0.0
22/01:00pm 33.3 29.1 7.3 20 14.5 E 19 28 10 15 - - 0.0
22/12:30pm 31.3 27.0 7.1 22 13.4 NE 19 30 10 16 - - 0.0
22/12:00pm 31.7 28.2 8.7 24 13.1 E 17 26 9 14 - - 0.0
22/11:30am 30.4 25.7 7.6 24 12.6 NE 22 33 12 18 - - 0.0
22/11:00am 29.8 24.3 7.7 25 12.2 ENE 26 35 14 19 - - 0.0
22/10:30am 29.9 24.6 8.3 26 12.1 ENE 26 43 14 23 - - 0.0
22/10:00am 28.9 23.4 7.5 26 11.7 ENE 26 35 14 19 - - 0.0
22/09:30am 28.4 23.4 8.1 28 11.2 ENE 24 32 13 17 - - 0.0
22/09:00am 27.9 23.7 8.2 29 10.9 NE 20 32 11 17 - - 0.0
22/08:30am 26.9 21.5 7.9 30 10.4 ENE 26 37 14 20 - - 0.0
22/08:00am 26.1 20.9 7.2 30 10.2 ENE 24 41 13 22 - - 0.0
22/07:30am 25.6 20.8 7.2 31 9.9 ENE 22 32 12 17 - - 0.0
22/07:00am 24.8 20.4 6.5 31 9.7 ENE 19 28 10 15 - - 0.0
22/06:30am 23.9 19.8 6.2 32 9.2 ENE 17 22 9 12 - - 0.0
22/06:00am 23.6 19.5 6.4 33 9.0 E 17 24 9 13 - - 0.0
22/05:30am 21.8 18.7 3.5 30 9.0 E 9 13 5 7 - - 0.0
22/05:00am 22.2 19.0 2.8 28 9.4 E 9 9 5 5 - - 0.0
22/04:30am 22.6 18.9 2.1 26 9.8 E 11 13 6 7 - - 0.0
22/04:00am 22.8 18.9 1.2 24 10.2 E 11 13 6 7 - - 0.0
22/03:30am 22.7 19.1 0.5 23 10.3 E 9 11 5 6 - - 0.0
22/03:00am 23.4 19.8 0.5 22 10.7 E 9 11 5 6 - - 0.0
22/02:30am 24.3 20.3 0.6 21 11.2 E 11 13 6 7 - - 0.0
22/02:00am 24.6 20.3 0.8 21 11.3 E 13 15 7 8 - - 0.0
22/01:30am 24.6 20.6 0.2 20 11.5 E 11 15 6 8 - - 0.0
22/01:00am 24.5 20.0 -0.6 19 11.6 E 13 15 7 8 - - 0.0
22/12:30am 24.6 20.7 -1.3 18 11.8 E 9 13 5 7 - - 0.0
22/12:00am 24.5 20.6 -1.3 18 11.8 ESE 9 15 5 8 - - 0.0
 
Date/Time
EST
Temp
°C
App
Temp
°C
Dew
Point
Rel
Hum
%
Delta-T
°C
Wind Press
QNH
hPa
Press
MSL
hPa
Rain
since 9 am
mm
Dir
 
Spd
km/h
Gust
km/h
Spd
kts
Gust
kts
21/11:30pm 25.1 21.3 -0.9 18 12.0 E 9 9 5 5 - - 0.0
21/11:00pm 25.9 22.2 -0.2 18 12.3 E 9 11 5 6 - - 0.0
21/10:30pm 26.0 22.4 0.6 19 12.1 E 9 11 5 6 - - 0.0
21/10:00pm 26.4 23.2 0.9 19 12.3 E 7 9 4 5 - - 0.0
21/09:30pm 27.4 24.4 1.8 19 12.6 E 7 9 4 5 - - 0.0
21/09:00pm 27.9 24.4 1.4 18 13.0 E 9 11 5 6 - - 0.0
21/08:30pm 28.6 25.2 2.0 18 13.3 E 9 11 5 6 - - 0.0
21/08:00pm 29.2 25.8 1.7 17 13.7 E 9 9 5 5 - - 0.0
21/07:30pm 29.9 26.9 2.2 17 14.0 E 7 9 4 5 - - 0.0
21/07:00pm 31.0 27.7 2.3 16 14.6 E 9 13 5 7 - - 0.0

Other Formats:

Comma delimited format used in spreadsheet applications
http://www.bom.gov.au/fwo/IDQ60801/IDQ60801.94349.axf

JavaScript Object Notation format (JSON) in row-major order
http://www.bom.gov.au/fwo/IDQ60801/IDQ60801.94349.json